Terminal Aerodrome Forecast
Issued by NWS

Home | Current Version | Previous Version | Text Only | Print | Product List | Glossary On
Versions: 1 2 3 4 5 6 7 8 9 10 11 12 13 14 15 16
179
FTUS45 KVEF 241133
TAFBIH
TAF
KBIH 241133Z 2412/2512 32006KT P6SM FEW100 BKN250
     FM241700 17010KT P6SM SCT100 BKN200
     FM241900 17017G25KT P6SM SCT100 BKN200
     FM250300 17012KT P6SM VCSH SCT050 BKN100 PROB30 2504/2510 -SHRA
      BKN050=

USA.gov is the U.S. government's official web portal to all federal, state and local government web resources and services.